»·PEaware :: QXE2695 KGEG-KPDX

QXE2695 :: KGEG-KPDX

FLIGHT INFORMATION

Flight Status: Arrived
Operator:
Horizon Air
More flights by this operator :: More flights under this callsign
Pilot: Mattia C. (24842)
Aircraft: DEHAVILLAND DASH 8 400
(DH8D)
More flights by this aircraft type
Origin: KGEG Spokane Intl
United States
Destination: KPDX Portland Intl
United States
More flights between these airports :: More routes between these airports
Route: +GEG5 ZEGRO YENTL HHOOD4
File this flight plan on PilotEdge
Remarks: RMK / SIMBRIEF
Altitude:
(Current/Filed)
20,000ft
Speed:
(Current/Filed)
322kts
Departed: 31-May-19 09:09 AM
Arrived: 31-May-19 10:09 AM
Distance/Time
Traveled:
241nm/0:59
Distance/Time
To Go:
Arrived

Flight Plot

Page will automatically refresh every two minutes.

Flight plan parsing failed; only flown route is shown


Map Options




Map Legend


Flown Route
Filed Route
Departure Airport
Arrival Airport
Navaid (VOR, NDB)
Fix

Horizontal Profiles

Position Reports

Time Latitude Longitude Heading Altitude Ground
Speed
31-May-19 08:49 47.625955 -117.535121 212 2379ft 0kts
31-May-19 08:50 47.625955 -117.535121 212 2379ft 0kts
31-May-19 08:51 47.625955 -117.535121 212 2379ft 0kts
31-May-19 08:52 47.625955 -117.535121 212 2379ft 0kts
31-May-19 08:53 47.625955 -117.535121 212 2379ft 0kts
31-May-19 08:54 47.625955 -117.535121 212 2379ft 0kts
31-May-19 08:55 47.625955 -117.535121 212 2379ft 0kts
31-May-19 08:56 47.625955 -117.535121 212 2379ft 0kts
31-May-19 08:57 47.625955 -117.535121 212 2379ft 0kts
31-May-19 08:58 47.626062 -117.535020 212 2379ft 2kts
31-May-19 08:59 47.626523 -117.534582 212 2379ft 0kts
31-May-19 09:00 47.626523 -117.534582 212 2379ft 0kts
31-May-19 09:01 47.626523 -117.534582 212 2379ft 0kts
31-May-19 09:02 47.626523 -117.534582 212 2379ft 0kts
31-May-19 09:03 47.625875 -117.533519 135 2379ft 15kts
31-May-19 09:04 47.625921 -117.530245 45 2379ft 18kts
31-May-19 09:05 47.629853 -117.524296 45 2379ft 12kts
31-May-19 09:06 47.632215 -117.520004 130 2379ft 4kts
31-May-19 09:07 47.631165 -117.518552 170 2379ft 5kts
31-May-19 09:08 47.624316 -117.528638 225 2380ft 127kts
31-May-19 09:09 47.595411 -117.572611 217 4238ft 160kts
31-May-19 09:10 47.561544 -117.624162 233 6089ft 194kts
31-May-19 09:11 47.527434 -117.688234 228 8281ft 200kts
31-May-19 09:12 47.490496 -117.751693 229 10287ft 206kts
31-May-19 09:13 47.451962 -117.819235 234 12549ft 215kts
31-May-19 09:14 47.416464 -117.893590 235 14519ft 232kts
31-May-19 09:15 47.376066 -117.978575 235 15185ft 276kts
31-May-19 09:16 47.331462 -118.071746 235 16325ft 283kts
31-May-19 09:17 47.285585 -118.166461 235 17384ft 289kts
31-May-19 09:18 47.239179 -118.262219 235 18349ft 289kts
31-May-19 09:19 47.191979 -118.359116 235 19134ft 296kts
31-May-19 09:20 47.143745 -118.457755 234 19730ft 299kts
31-May-19 09:21 47.093399 -118.557321 223 20082ft 310kts
31-May-19 09:22 47.014436 -118.616237 205 20104ft 332kts
31-May-19 09:23 46.929296 -118.675342 205 20100ft 344kts
31-May-19 09:24 46.842424 -118.735621 205 20099ft 349kts
31-May-19 09:25 46.754775 -118.796079 205 20106ft 352kts
31-May-19 09:26 46.669784 -118.864676 229 20081ft 351kts
31-May-19 09:27 46.619883 -118.986228 240 20081ft 349kts
31-May-19 09:28 46.572016 -119.107043 240 20089ft 348kts
31-May-19 09:29 46.523471 -119.228943 240 20076ft 350kts
31-May-19 09:30 46.474242 -119.351978 240 20075ft 351kts
31-May-19 09:31 46.425442 -119.473384 240 20075ft 352kts
31-May-19 09:32 46.375861 -119.596190 240 20075ft 353kts
31-May-19 09:33 46.325994 -119.719159 240 20077ft 353kts
31-May-19 09:34 46.277540 -119.838079 239 20082ft 354kts
31-May-19 09:35 46.227836 -119.959345 239 20079ft 353kts
31-May-19 09:36 46.177567 -120.082332 239 20080ft 354kts
31-May-19 09:37 46.128340 -120.202248 238 20081ft 356kts
31-May-19 09:38 46.078333 -120.322782 238 20082ft 357kts
31-May-19 09:39 46.027745 -120.444135 238 20083ft 357kts
31-May-19 09:40 45.976637 -120.566348 238 20086ft 357kts
31-May-19 09:41 45.925588 -120.687909 238 20091ft 358kts
31-May-19 09:42 45.873631 -120.811024 238 20089ft 359kts
31-May-19 09:43 45.822547 -120.931434 238 19518ft 350kts
31-May-19 09:44 45.772950 -121.047971 238 18521ft 339kts
31-May-19 09:45 45.725114 -121.159899 238 17539ft 333kts
31-May-19 09:46 45.678377 -121.269734 239 16556ft 326kts
31-May-19 09:47 45.633485 -121.381505 245 15500ft 321kts
31-May-19 09:48 45.597700 -121.496539 246 14316ft 321kts
31-May-19 09:49 45.561900 -121.611264 246 13129ft 319kts
31-May-19 09:50 45.530522 -121.728675 265 12072ft 317kts
31-May-19 09:51 45.534025 -121.849492 274 11965ft 298kts
31-May-19 09:52 45.539962 -121.968294 281 11974ft 309kts
31-May-19 09:53 45.565160 -122.087398 288 11716ft 326kts
31-May-19 09:54 45.591257 -122.211093 287 10717ft 325kts
31-May-19 09:55 45.615944 -122.331050 287 9703ft 317kts
31-May-19 09:57 45.639224 -122.444328 287 8502ft 286kts
31-May-19 09:58 45.670207 -122.539881 298 6868ft 253kts
31-May-19 09:59 45.701274 -122.625036 297 5527ft 241kts
31-May-19 10:00 45.731603 -122.709309 298 5016ft 233kts
31-May-19 10:01 45.759334 -122.789661 298 4368ft 241kts
31-May-19 10:02 45.758932 -122.876136 215 3061ft 247kts
31-May-19 10:03 45.704724 -122.854683 128 2986ft 194kts
31-May-19 10:04 45.675563 -122.798012 121 2983ft 145kts
31-May-19 10:05 45.654094 -122.747012 117 2351ft 150kts
31-May-19 10:06 45.634717 -122.697830 116 1620ft 126kts
31-May-19 10:07 45.616863 -122.651815 117 942ft 143kts
31-May-19 10:08 45.598810 -122.606052 117 232ft 133kts
31-May-19 10:09 45.587434 -122.576761 120 37ft 18kts
31-May-19 10:10 45.586200 -122.576457 217 38ft 7kts
31-May-19 10:11 45.587857 -122.581093 299 38ft 13kts
31-May-19 10:12 45.589548 -122.585860 267 38ft 14kts
31-May-19 10:13 45.590268 -122.589398 298 38ft 9kts
31-May-19 10:14 45.591679 -122.593417 222 37ft 2kts
31-May-19 10:15 45.591096 -122.593646 185 37ft 0kts
31-May-19 10:16 45.591096 -122.593646 185 37ft 0kts

Navigation Log

Ident Type
Flight plan parsing failed, navigation log unavailable